sensor_id;sensor_type;location;lat;lon;timestamp;pressure;altitude;pressure_sealevel;temperature;humidity
35910;BME280;22004;49.120;-0.200;2022-11-13T00:00:21;102111.59;;;12.01;78.48
35910;BME280;22004;49.120;-0.200;2022-11-13T00:02:47;102121.81;;;11.97;79.08
35910;BME280;22004;49.120;-0.200;2022-11-13T00:05:12;102113.75;;;11.97;78.77
35910;BME280;22004;49.120;-0.200;2022-11-13T00:07:37;102124.03;;;12.02;78.63
35910;BME280;22004;49.120;-0.200;2022-11-13T00:10:03;102120.97;;;11.97;78.52
35910;BME280;22004;49.120;-0.200;2022-11-13T00:12:29;102123.00;;;11.95;78.27
35910;BME280;22004;49.120;-0.200;2022-11-13T00:14:54;102106.38;;;11.99;78.83
35910;BME280;22004;49.120;-0.200;2022-11-13T00:17:19;102102.97;;;11.97;78.31
35910;BME280;22004;49.120;-0.200;2022-11-13T00:19:45;102109.47;;;11.86;78.79
35910;BME280;22004;49.120;-0.200;2022-11-13T00:22:10;102097.38;;;11.90;78.90
35910;BME280;22004;49.120;-0.200;2022-11-13T00:24:35;102092.38;;;11.96;78.42
35910;BME280;22004;49.120;-0.200;2022-11-13T00:27:01;102086.81;;;11.97;78.62
35910;BME280;22004;49.120;-0.200;2022-11-13T00:29:26;102088.84;;;11.95;78.77
35910;BME280;22004;49.120;-0.200;2022-11-13T00:31:51;102081.63;;;11.96;78.69
35910;BME280;22004;49.120;-0.200;2022-11-13T00:34:17;102077.38;;;11.93;78.40
35910;BME280;22004;49.120;-0.200;2022-11-13T00:36:42;102074.69;;;11.93;78.13
35910;BME280;22004;49.120;-0.200;2022-11-13T00:39:08;102073.53;;;11.96;78.12
35910;BME280;22004;49.120;-0.200;2022-11-13T00:41:33;102077.88;;;11.88;78.74
35910;BME280;22004;49.120;-0.200;2022-11-13T00:43:58;102076.22;;;11.96;78.42
35910;BME280;22004;49.120;-0.200;2022-11-13T00:46:24;102075.91;;;11.63;78.88
35910;BME280;22004;49.120;-0.200;2022-11-13T00:48:49;102066.56;;;11.31;79.92
35910;BME280;22004;49.120;-0.200;2022-11-13T00:51:15;102066.19;;;11.26;80.08
35910;BME280;22004;49.120;-0.200;2022-11-13T00:53:40;102067.97;;;11.35;80.38
35910;BME280;22004;49.120;-0.200;2022-11-13T00:56:06;102061.41;;;11.56;80.71
35910;BME280;22004;49.120;-0.200;2022-11-13T00:58:31;102054.69;;;11.34;79.93
35910;BME280;22004;49.120;-0.200;2022-11-13T01:01:07;102053.16;;;11.93;78.63
35910;BME280;22004;49.120;-0.200;2022-11-13T01:03:33;102060.63;;;11.81;78.37
35910;BME280;22004;49.120;-0.200;2022-11-13T01:05:58;102054.31;;;11.90;78.70
35910;BME280;22004;49.120;-0.200;2022-11-13T01:08:24;102053.13;;;11.85;78.79
35910;BME280;22004;49.120;-0.200;2022-11-13T01:10:49;102051.81;;;11.89;78.42
35910;BME280;22004;49.120;-0.200;2022-11-13T01:13:14;102054.63;;;11.87;78.44
35910;BME280;22004;49.120;-0.200;2022-11-13T01:15:41;102051.13;;;11.69;79.65
35910;BME280;22004;49.120;-0.200;2022-11-13T01:18:07;102046.88;;;11.84;78.72
35910;BME280;22004;49.120;-0.200;2022-11-13T01:20:33;102041.34;;;11.86;78.37
35910;BME280;22004;49.120;-0.200;2022-11-13T01:22:58;102037.97;;;11.84;78.44
35910;BME280;22004;49.120;-0.200;2022-11-13T01:25:24;102039.09;;;11.63;78.25
35910;BME280;22004;49.120;-0.200;2022-11-13T01:27:50;102039.97;;;11.82;78.35
35910;BME280;22004;49.120;-0.200;2022-11-13T01:30:15;102029.03;;;11.83;78.82
35910;BME280;22004;49.120;-0.200;2022-11-13T01:32:41;102029.03;;;11.83;78.40
35910;BME280;22004;49.120;-0.200;2022-11-13T01:35:06;102027.28;;;11.74;78.25
35910;BME280;22004;49.120;-0.200;2022-11-13T01:37:32;102028.13;;;11.75;78.75
35910;BME280;22004;49.120;-0.200;2022-11-13T01:39:57;102024.03;;;11.71;78.17
35910;BME280;22004;49.120;-0.200;2022-11-13T01:42:22;102029.06;;;11.65;78.23
35910;BME280;22004;49.120;-0.200;2022-11-13T01:44:57;102030.06;;;11.64;78.61
35910;BME280;22004;49.120;-0.200;2022-11-13T01:47:26;102027.28;;;11.74;78.66
35910;BME280;22004;49.120;-0.200;2022-11-13T01:49:55;102031.56;;;11.67;78.06
35910;BME280;22004;49.120;-0.200;2022-11-13T01:52:25;102035.34;;;11.74;78.44
35910;BME280;22004;49.120;-0.200;2022-11-13T01:54:58;102038.59;;;11.42;79.85
35910;BME280;22004;49.120;-0.200;2022-11-13T01:57:25;102029.34;;;11.62;79.37
35910;BME280;22004;49.120;-0.200;2022-11-13T01:59:56;102021.91;;;11.74;78.60
35910;BME280;22004;49.120;-0.200;2022-11-13T02:02:22;102019.69;;;11.70;78.29
35910;BME280;22004;49.120;-0.200;2022-11-13T02:04:48;102018.13;;;11.67;78.04
35910;BME280;22004;49.120;-0.200;2022-11-13T02:07:16;102026.91;;;11.69;78.37
35910;BME280;22004;49.120;-0.200;2022-11-13T02:09:45;102020.44;;;11.62;78.08
35910;BME280;22004;49.120;-0.200;2022-11-13T02:12:13;102010.00;;;11.59;78.30
35910;BME280;22004;49.120;-0.200;2022-11-13T02:14:42;102012.69;;;11.59;78.17
35910;BME280;22004;49.120;-0.200;2022-11-13T02:17:10;102004.84;;;11.65;78.06
35910;BME280;22004;49.120;-0.200;2022-11-13T02:19:41;101998.25;;;11.42;77.42
35910;BME280;22004;49.120;-0.200;2022-11-13T02:25:11;101993.91;;;11.23;78.54
35910;BME280;22004;49.120;-0.200;2022-11-13T02:27:44;101998.38;;;11.58;78.38
35910;BME280;22004;49.120;-0.200;2022-11-13T02:30:19;101996.03;;;11.55;78.03
35910;BME280;22004;49.120;-0.200;2022-11-13T02:32:49;101996.50;;;11.51;78.23
35910;BME280;22004;49.120;-0.200;2022-11-13T02:35:21;101992.97;;;11.50;78.05
35910;BME280;22004;49.120;-0.200;2022-11-13T02:37:47;101999.47;;;11.48;78.09
35910;BME280;22004;49.120;-0.200;2022-11-13T02:40:12;102002.50;;;11.45;77.98
35910;BME280;22004;49.120;-0.200;2022-11-13T02:42:38;101999.66;;;11.46;78.08
35910;BME280;22004;49.120;-0.200;2022-11-13T02:45:04;101984.81;;;11.42;77.89
35910;BME280;22004;49.120;-0.200;2022-11-13T02:47:31;101987.22;;;11.45;78.03
35910;BME280;22004;49.120;-0.200;2022-11-13T02:49:56;101983.31;;;11.39;77.69
35910;BME280;22004;49.120;-0.200;2022-11-13T02:52:21;101982.28;;;11.41;77.98
35910;BME280;22004;49.120;-0.200;2022-11-13T02:54:47;101986.38;;;11.45;77.91
35910;BME280;22004;49.120;-0.200;2022-11-13T02:57:12;101985.94;;;11.57;77.80
35910;BME280;22004;49.120;-0.200;2022-11-13T02:59:37;101981.38;;;11.50;77.87
35910;BME280;22004;49.120;-0.200;2022-11-13T03:02:03;101979.59;;;11.41;77.54
35910;BME280;22004;49.120;-0.200;2022-11-13T03:04:28;101973.06;;;11.43;77.78
35910;BME280;22004;49.120;-0.200;2022-11-13T03:06:53;101968.00;;;11.40;78.15
35910;BME280;22004;49.120;-0.200;2022-11-13T03:09:19;101963.25;;;11.34;77.75
35910;BME280;22004;49.120;-0.200;2022-11-13T03:11:44;101965.44;;;11.38;77.87
35910;BME280;22004;49.120;-0.200;2022-11-13T03:14:10;101962.34;;;11.07;79.29
35910;BME280;22004;49.120;-0.200;2022-11-13T03:16:35;101959.34;;;11.10;79.45
35910;BME280;22004;49.120;-0.200;2022-11-13T03:19:01;101949.69;;;11.44;77.85
35910;BME280;22004;49.120;-0.200;2022-11-13T03:21:27;101954.09;;;11.45;77.36
35910;BME280;22004;49.120;-0.200;2022-11-13T03:23:53;101952.50;;;11.34;77.36
35910;BME280;22004;49.120;-0.200;2022-11-13T03:26:18;101940.03;;;11.33;77.74
35910;BME280;22004;49.120;-0.200;2022-11-13T03:28:44;101944.56;;;11.32;77.23
35910;BME280;22004;49.120;-0.200;2022-11-13T03:31:10;101938.19;;;11.33;77.51
35910;BME280;22004;49.120;-0.200;2022-11-13T03:33:36;101938.69;;;11.29;77.25
35910;BME280;22004;49.120;-0.200;2022-11-13T03:36:01;101946.75;;;11.29;77.41
35910;BME280;22004;49.120;-0.200;2022-11-13T03:38:27;101942.72;;;11.33;77.55
35910;BME280;22004;49.120;-0.200;2022-11-13T03:40:52;101939.38;;;11.31;77.06
35910;BME280;22004;49.120;-0.200;2022-11-13T03:43:18;101937.13;;;11.26;77.36
35910;BME280;22004;49.120;-0.200;2022-11-13T03:45:44;101935.38;;;11.35;78.03
35910;BME280;22004;49.120;-0.200;2022-11-13T03:48:11;101938.53;;;11.30;77.16
35910;BME280;22004;49.120;-0.200;2022-11-13T03:50:37;101927.88;;;11.21;77.36
35910;BME280;22004;49.120;-0.200;2022-11-13T03:53:03;101933.31;;;11.29;77.40
35910;BME280;22004;49.120;-0.200;2022-11-13T03:55:28;101932.78;;;11.25;76.92
35910;BME280;22004;49.120;-0.200;2022-11-13T03:57:53;101928.53;;;11.23;76.75
35910;BME280;22004;49.120;-0.200;2022-11-13T04:00:20;101930.38;;;11.22;77.17
35910;BME280;22004;49.120;-0.200;2022-11-13T04:02:45;101936.69;;;11.31;77.49
35910;BME280;22004;49.120;-0.200;2022-11-13T04:05:10;101944.81;;;11.21;77.12
35910;BME280;22004;49.120;-0.200;2022-11-13T04:07:36;101939.28;;;11.23;76.58
35910;BME280;22004;49.120;-0.200;2022-11-13T04:10:01;101936.94;;;11.20;76.57
35910;BME280;22004;49.120;-0.200;2022-11-13T04:12:27;101935.09;;;11.20;77.34
35910;BME280;22004;49.120;-0.200;2022-11-13T04:14:52;101928.91;;;11.28;77.32
35910;BME280;22004;49.120;-0.200;2022-11-13T04:17:17;101934.25;;;11.20;77.08
35910;BME280;22004;49.120;-0.200;2022-11-13T04:19:43;101924.78;;;11.16;76.66
35910;BME280;22004;49.120;-0.200;2022-11-13T04:22:08;101930.84;;;11.18;77.01
35910;BME280;22004;49.120;-0.200;2022-11-13T04:24:33;101925.88;;;11.05;76.84
35910;BME280;22004;49.120;-0.200;2022-11-13T04:26:59;101918.72;;;11.13;77.10
35910;BME280;22004;49.120;-0.200;2022-11-13T04:29:24;101913.97;;;11.25;77.11
35910;BME280;22004;49.120;-0.200;2022-11-13T04:31:49;101920.81;;;11.20;76.75
35910;BME280;22004;49.120;-0.200;2022-11-13T04:34:15;101924.47;;;11.19;76.54
35910;BME280;22004;49.120;-0.200;2022-11-13T04:36:40;101925.44;;;11.09;76.43
35910;BME280;22004;49.120;-0.200;2022-11-13T04:39:06;101919.59;;;11.14;76.08
35910;BME280;22004;49.120;-0.200;2022-11-13T04:41:32;101926.25;;;11.10;76.85
35910;BME280;22004;49.120;-0.200;2022-11-13T04:44:15;101924.72;;;11.07;76.57
35910;BME280;22004;49.120;-0.200;2022-11-13T04:46:41;101927.72;;;11.04;76.73
35910;BME280;22004;49.120;-0.200;2022-11-13T04:49:06;101928.56;;;11.05;76.28
35910;BME280;22004;49.120;-0.200;2022-11-13T04:51:32;101926.03;;;11.03;76.47
35910;BME280;22004;49.120;-0.200;2022-11-13T04:53:57;101922.81;;;11.00;76.89
35910;BME280;22004;49.120;-0.200;2022-11-13T04:56:22;101919.66;;;11.04;77.16
35910;BME280;22004;49.120;-0.200;2022-11-13T04:58:48;101912.00;;;11.09;76.58
35910;BME280;22004;49.120;-0.200;2022-11-13T05:01:13;101914.81;;;11.08;76.45
35910;BME280;22004;49.120;-0.200;2022-11-13T05:03:38;101903.53;;;11.04;76.70
35910;BME280;22004;49.120;-0.200;2022-11-13T05:06:05;101903.09;;;11.09;77.01
35910;BME280;22004;49.120;-0.200;2022-11-13T05:08:31;101889.72;;;10.99;76.39
35910;BME280;22004;49.120;-0.200;2022-11-13T05:10:56;101886.13;;;10.91;76.41
35910;BME280;22004;49.120;-0.200;2022-11-13T05:13:22;101884.38;;;10.99;76.22
35910;BME280;22004;49.120;-0.200;2022-11-13T05:15:48;101885.88;;;11.02;76.28
35910;BME280;22004;49.120;-0.200;2022-11-13T05:18:13;101882.66;;;10.98;76.42
35910;BME280;22004;49.120;-0.200;2022-11-13T05:20:38;101883.81;;;10.96;76.89
35910;BME280;22004;49.120;-0.200;2022-11-13T05:23:04;101884.66;;;10.96;76.75
35910;BME280;22004;49.120;-0.200;2022-11-13T05:25:29;101877.44;;;10.97;76.61
35910;BME280;22004;49.120;-0.200;2022-11-13T05:27:57;101870.44;;;11.04;76.45
35910;BME280;22004;49.120;-0.200;2022-11-13T05:30:22;101867.06;;;11.02;76.51
35910;BME280;22004;49.120;-0.200;2022-11-13T05:32:48;101856.16;;;11.03;76.73
35910;BME280;22004;49.120;-0.200;2022-11-13T05:35:13;101851.25;;;10.99;76.33
35910;BME280;22004;49.120;-0.200;2022-11-13T05:37:39;101850.28;;;11.00;76.78
35910;BME280;22004;49.120;-0.200;2022-11-13T05:40:04;101849.06;;;10.94;76.22
35910;BME280;22004;49.120;-0.200;2022-11-13T05:42:30;101844.56;;;11.03;76.63
35910;BME280;22004;49.120;-0.200;2022-11-13T05:44:55;101842.88;;;11.02;76.20
35910;BME280;22004;49.120;-0.200;2022-11-13T05:47:21;101836.97;;;10.98;75.98
35910;BME280;22004;49.120;-0.200;2022-11-13T05:49:46;101831.47;;;11.00;76.23
35910;BME280;22004;49.120;-0.200;2022-11-13T05:52:11;101826.94;;;11.00;76.25
35910;BME280;22004;49.120;-0.200;2022-11-13T05:54:37;101836.97;;;10.98;76.36
35910;BME280;22004;49.120;-0.200;2022-11-13T05:57:02;101827.69;;;10.93;76.48
35910;BME280;22004;49.120;-0.200;2022-11-13T05:59:28;101818.50;;;10.95;76.32
35910;BME280;22004;49.120;-0.200;2022-11-13T06:01:53;101822.41;;;11.01;76.59
35910;BME280;22004;49.120;-0.200;2022-11-13T06:04:18;101811.09;;;10.97;76.21
35910;BME280;22004;49.120;-0.200;2022-11-13T06:06:44;101812.13;;;10.96;76.11
35910;BME280;22004;49.120;-0.200;2022-11-13T06:09:13;101805.16;;;10.85;76.59
35910;BME280;22004;49.120;-0.200;2022-11-13T06:11:41;101803.88;;;10.98;75.78
35910;BME280;22004;49.120;-0.200;2022-11-13T06:14:07;101796.53;;;11.00;76.60
35910;BME280;22004;49.120;-0.200;2022-11-13T06:16:34;101804.69;;;10.90;77.27
35910;BME280;22004;49.120;-0.200;2022-11-13T06:19:02;101796.28;;;10.67;77.53
35910;BME280;22004;49.120;-0.200;2022-11-13T06:21:31;101788.59;;;10.72;76.54
35910;BME280;22004;49.120;-0.200;2022-11-13T06:23:58;101784.91;;;9.74;77.79
35910;BME280;22004;49.120;-0.200;2022-11-13T06:26:27;101783.88;;;9.85;78.50
35910;BME280;22004;49.120;-0.200;2022-11-13T06:28:52;101779.47;;;10.65;77.99
35910;BME280;22004;49.120;-0.200;2022-11-13T06:31:24;101776.66;;;10.93;77.01
35910;BME280;22004;49.120;-0.200;2022-11-13T06:33:49;101774.66;;;10.95;76.75
35910;BME280;22004;49.120;-0.200;2022-11-13T06:36:23;101771.16;;;11.02;76.82
35910;BME280;22004;49.120;-0.200;2022-11-13T06:38:49;101775.22;;;11.06;nan
35910;BME280;22004;49.120;-0.200;2022-11-13T06:41:17;101772.72;;;11.05;76.33
35910;BME280;22004;49.120;-0.200;2022-11-13T06:43:43;101768.31;;;11.04;76.54
35910;BME280;22004;49.120;-0.200;2022-11-13T06:46:14;101769.75;;;10.90;76.10
35910;BME280;22004;49.120;-0.200;2022-11-13T06:48:40;101771.81;;;10.96;76.51
35910;BME280;22004;49.120;-0.200;2022-11-13T06:51:07;101779.94;;;11.04;76.55
35910;BME280;22004;49.120;-0.200;2022-11-13T06:53:34;101782.34;;;10.90;76.96
35910;BME280;22004;49.120;-0.200;2022-11-13T06:56:00;101783.09;;;11.00;76.87
35910;BME280;22004;49.120;-0.200;2022-11-13T06:58:26;101770.78;;;10.89;77.57
35910;BME280;22004;49.120;-0.200;2022-11-13T07:00:52;101771.00;;;11.04;77.07
35910;BME280;22004;49.120;-0.200;2022-11-13T07:03:20;101771.41;;;11.09;76.78
35910;BME280;22004;49.120;-0.200;2022-11-13T07:05:46;101770.88;;;11.05;76.52
35910;BME280;22004;49.120;-0.200;2022-11-13T07:08:12;101775.06;;;11.08;76.75
35910;BME280;22004;49.120;-0.200;2022-11-13T07:10:38;101766.34;;;11.06;76.96
35910;BME280;22004;49.120;-0.200;2022-11-13T07:13:03;101768.00;;;11.07;76.70
35910;BME280;22004;49.120;-0.200;2022-11-13T07:15:32;101760.78;;;11.07;76.65
35910;BME280;22004;49.120;-0.200;2022-11-13T07:17:59;101770.16;;;11.03;76.29
35910;BME280;22004;49.120;-0.200;2022-11-13T07:20:24;101765.63;;;11.04;76.06
35910;BME280;22004;49.120;-0.200;2022-11-13T07:22:54;101763.63;;;11.06;76.43
35910;BME280;22004;49.120;-0.200;2022-11-13T07:25:19;101758.09;;;11.07;76.54
35910;BME280;22004;49.120;-0.200;2022-11-13T07:27:45;101770.16;;;11.03;76.31
35910;BME280;22004;49.120;-0.200;2022-11-13T07:30:10;101758.56;;;11.03;76.72
35910;BME280;22004;49.120;-0.200;2022-11-13T07:32:36;101755.88;;;11.03;76.50
35910;BME280;22004;49.120;-0.200;2022-11-13T07:35:01;101748.53;;;11.05;77.01
35910;BME280;22004;49.120;-0.200;2022-11-13T07:37:27;101741.88;;;10.91;76.95
35910;BME280;22004;49.120;-0.200;2022-11-13T07:39:52;101743.09;;;10.71;75.73
35910;BME280;22004;49.120;-0.200;2022-11-13T07:42:17;101744.06;;;9.63;80.74
35910;BME280;22004;49.120;-0.200;2022-11-13T07:44:43;101742.88;;;9.75;80.53
35910;BME280;22004;49.120;-0.200;2022-11-13T07:47:08;101739.25;;;10.29;79.62
35910;BME280;22004;49.120;-0.200;2022-11-13T07:49:33;101736.31;;;10.41;78.72
35910;BME280;22004;49.120;-0.200;2022-11-13T07:51:59;101741.59;;;9.97;80.25
35910;BME280;22004;49.120;-0.200;2022-11-13T07:54:24;101735.34;;;9.61;80.57
35910;BME280;22004;49.120;-0.200;2022-11-13T07:56:49;101734.44;;;9.42;81.24
35910;BME280;22004;49.120;-0.200;2022-11-13T07:59:15;101734.88;;;9.38;82.54
35910;BME280;22004;49.120;-0.200;2022-11-13T08:01:40;101731.28;;;9.74;81.65
35910;BME280;22004;49.120;-0.200;2022-11-13T08:04:05;101732.19;;;9.65;81.39
35910;BME280;22004;49.120;-0.200;2022-11-13T08:06:31;101733.06;;;10.01;80.76
35910;BME280;22004;49.120;-0.200;2022-11-13T08:08:56;101741.66;;;10.58;79.21
35910;BME280;22004;49.120;-0.200;2022-11-13T08:11:21;101745.19;;;11.11;77.06
35910;BME280;22004;49.120;-0.200;2022-11-13T08:13:47;101759.41;;;11.29;76.63
35910;BME280;22004;49.120;-0.200;2022-11-13T08:16:12;101756.38;;;11.32;76.74
35910;BME280;22004;49.120;-0.200;2022-11-13T08:18:37;101745.50;;;10.82;76.13
35910;BME280;22004;49.120;-0.200;2022-11-13T08:21:04;101746.50;;;10.01;79.26
35910;BME280;22004;49.120;-0.200;2022-11-13T08:23:30;101743.31;;;10.77;78.23
35910;BME280;22004;49.120;-0.200;2022-11-13T08:25:56;101750.78;;;10.48;78.84
35910;BME280;22004;49.120;-0.200;2022-11-13T08:28:22;101747.44;;;11.24;76.67
35910;BME280;22004;49.120;-0.200;2022-11-13T08:30:47;101750.16;;;10.72;76.82
35910;BME280;22004;49.120;-0.200;2022-11-13T08:33:12;101753.28;;;10.85;77.79
35910;BME280;22004;49.120;-0.200;2022-11-13T08:35:38;101755.25;;;11.43;75.98
35910;BME280;22004;49.120;-0.200;2022-11-13T08:38:05;101761.34;;;11.53;76.01
35910;BME280;22004;49.120;-0.200;2022-11-13T08:40:30;101762.56;;;11.59;75.56
35910;BME280;22004;49.120;-0.200;2022-11-13T08:43:00;101767.97;;;11.67;75.49
35910;BME280;22004;49.120;-0.200;2022-11-13T08:45:27;101763.97;;;11.79;75.24
35910;BME280;22004;49.120;-0.200;2022-11-13T08:47:52;101756.44;;;10.80;78.22
35910;BME280;22004;49.120;-0.200;2022-11-13T08:50:18;101751.31;;;10.69;79.40
35910;BME280;22004;49.120;-0.200;2022-11-13T08:52:43;101747.38;;;10.81;79.20
35910;BME280;22004;49.120;-0.200;2022-11-13T08:55:09;101744.22;;;10.42;79.64
35910;BME280;22004;49.120;-0.200;2022-11-13T08:57:34;101739.66;;;10.86;78.76
35910;BME280;22004;49.120;-0.200;2022-11-13T08:59:59;101731.31;;;11.66;75.94
35910;BME280;22004;49.120;-0.200;2022-11-13T09:02:25;101728.00;;;11.80;75.64
35910;BME280;22004;49.120;-0.200;2022-11-13T09:04:51;101721.06;;;11.27;78.00
35910;BME280;22004;49.120;-0.200;2022-11-13T09:07:16;101729.78;;;11.55;76.57
35910;BME280;22004;49.120;-0.200;2022-11-13T09:09:41;101735.13;;;12.06;74.78
35910;BME280;22004;49.120;-0.200;2022-11-13T09:12:07;101744.75;;;12.08;74.46
35910;BME280;22004;49.120;-0.200;2022-11-13T09:14:32;101745.69;;;11.91;75.53
35910;BME280;22004;49.120;-0.200;2022-11-13T09:16:58;101749.28;;;12.32;74.47
35910;BME280;22004;49.120;-0.200;2022-11-13T09:19:23;101751.47;;;12.21;74.63
35910;BME280;22004;49.120;-0.200;2022-11-13T09:21:50;101752.44;;;12.03;75.23
35910;BME280;22004;49.120;-0.200;2022-11-13T09:24:15;101748.97;;;12.35;74.35
35910;BME280;22004;49.120;-0.200;2022-11-13T09:26:41;101748.63;;;12.47;73.95
35910;BME280;22004;49.120;-0.200;2022-11-13T09:29:07;101750.16;;;12.49;73.78
35910;BME280;22004;49.120;-0.200;2022-11-13T09:31:34;101746.59;;;12.73;72.99
35910;BME280;22004;49.120;-0.200;2022-11-13T09:33:59;101738.84;;;12.62;73.70
35910;BME280;22004;49.120;-0.200;2022-11-13T09:36:25;101729.41;;;12.01;77.14
35910;BME280;22004;49.120;-0.200;2022-11-13T09:38:50;101737.13;;;11.96;77.74
35910;BME280;22004;49.120;-0.200;2022-11-13T09:41:20;101734.28;;;11.97;77.95
35910;BME280;22004;49.120;-0.200;2022-11-13T09:43:52;101735.84;;;12.40;75.44
35910;BME280;22004;49.120;-0.200;2022-11-13T09:46:36;101747.75;;;12.62;75.07
35910;BME280;22004;49.120;-0.200;2022-11-13T09:49:21;101767.81;;;12.84;73.38
35910;BME280;22004;49.120;-0.200;2022-11-13T09:51:51;101765.28;;;12.34;76.83
35910;BME280;22004;49.120;-0.200;2022-11-13T09:54:18;101757.38;;;12.40;77.70
35910;BME280;22004;49.120;-0.200;2022-11-13T09:56:59;101753.50;;;12.35;76.46
35910;BME280;22004;49.120;-0.200;2022-11-13T10:05:03;101756.59;;;13.20;73.54
35910;BME280;22004;49.120;-0.200;2022-11-13T10:12:55;101750.03;;;13.31;73.25
35910;BME280;22004;49.120;-0.200;2022-11-13T10:15:24;101747.38;;;13.06;75.17
35910;BME280;22004;49.120;-0.200;2022-11-13T10:18:00;101745.00;;;13.11;75.16
35910;BME280;22004;49.120;-0.200;2022-11-13T10:20:39;101734.06;;;13.13;75.65
35910;BME280;22004;49.120;-0.200;2022-11-13T10:23:19;101742.44;;;13.34;73.29
35910;BME280;22004;49.120;-0.200;2022-11-13T10:25:45;101736.84;;;13.44;76.04
35910;BME280;22004;49.120;-0.200;2022-11-13T10:28:19;101747.25;;;13.47;74.39
35910;BME280;22004;49.120;-0.200;2022-11-13T10:30:47;101740.59;;;13.66;73.66
35910;BME280;22004;49.120;-0.200;2022-11-13T10:33:18;101726.16;;;13.59;74.56
35910;BME280;22004;49.120;-0.200;2022-11-13T10:35:49;101724.28;;;13.59;77.74
35910;BME280;22004;49.120;-0.200;2022-11-13T10:41:19;101716.06;;;13.53;76.93
35910;BME280;22004;49.120;-0.200;2022-11-13T10:43:51;101707.50;;;13.72;77.88
35910;BME280;22004;49.120;-0.200;2022-11-13T10:46:25;101710.41;;;13.93;76.87
35910;BME280;22004;49.120;-0.200;2022-11-13T10:48:51;101695.13;;;14.09;75.48
35910;BME280;22004;49.120;-0.200;2022-11-13T10:51:28;101696.19;;;14.00;77.00
35910;BME280;22004;49.120;-0.200;2022-11-13T10:53:54;101685.09;;;14.17;76.18
35910;BME280;22004;49.120;-0.200;2022-11-13T10:56:27;101680.59;;;14.10;76.07
35910;BME280;22004;49.120;-0.200;2022-11-13T10:59:00;101681.38;;;14.18;75.77
35910;BME280;22004;49.120;-0.200;2022-11-13T11:01:27;101668.31;;;14.07;75.89
35910;BME280;22004;49.120;-0.200;2022-11-13T11:03:52;101658.25;;;14.16;76.55
35910;BME280;22004;49.120;-0.200;2022-11-13T11:06:18;101656.53;;;14.23;74.18
35910;BME280;22004;49.120;-0.200;2022-11-13T11:08:43;101642.84;;;14.25;75.93
35910;BME280;22004;49.120;-0.200;2022-11-13T11:11:16;101640.47;;;14.21;76.24
35910;BME280;22004;49.120;-0.200;2022-11-13T11:14:25;101629.13;;;14.49;75.91
35910;BME280;22004;49.120;-0.200;2022-11-13T11:16:51;101621.00;;;14.49;75.37
35910;BME280;22004;49.120;-0.200;2022-11-13T11:19:23;101625.91;;;14.45;76.06
35910;BME280;22004;49.120;-0.200;2022-11-13T11:21:54;101629.59;;;14.67;75.81
35910;BME280;22004;49.120;-0.200;2022-11-13T11:24:29;101625.75;;;14.77;75.60
35910;BME280;22004;49.120;-0.200;2022-11-13T11:27:02;101621.94;;;14.71;75.96
35910;BME280;22004;49.120;-0.200;2022-11-13T11:29:38;101610.56;;;14.90;76.21
35910;BME280;22004;49.120;-0.200;2022-11-13T11:32:28;101606.44;;;15.09;74.82
35910;BME280;22004;49.120;-0.200;2022-11-13T11:35:04;101599.72;;;15.20;73.60
35910;BME280;22004;49.120;-0.200;2022-11-13T11:37:37;101604.19;;;15.28;73.19
35910;BME280;22004;49.120;-0.200;2022-11-13T11:40:16;101602.13;;;15.30;73.78
35910;BME280;22004;49.120;-0.200;2022-11-13T11:42:49;101592.47;;;15.42;73.37
35910;BME280;22004;49.120;-0.200;2022-11-13T11:45:25;101582.00;;;15.17;72.61
35910;BME280;22004;49.120;-0.200;2022-11-13T11:47:52;101584.75;;;15.39;73.55
35910;BME280;22004;49.120;-0.200;2022-11-13T11:51:09;101587.75;;;15.29;73.19
35910;BME280;22004;49.120;-0.200;2022-11-13T11:53:43;101573.97;;;15.45;72.53
35910;BME280;22004;49.120;-0.200;2022-11-13T12:09:27;101552.38;;;15.95;70.39
35910;BME280;22004;49.120;-0.200;2022-11-13T12:14:40;101544.13;;;16.03;70.00
35910;BME280;22004;49.120;-0.200;2022-11-13T12:22:46;101522.22;;;15.98;70.18
35910;BME280;22004;49.120;-0.200;2022-11-13T12:28:10;101511.88;;;16.08;69.37
35910;BME280;22004;49.120;-0.200;2022-11-13T12:31:00;101502.41;;;15.97;69.83
35910;BME280;22004;49.120;-0.200;2022-11-13T12:36:04;101497.72;;;16.13;67.87
35910;BME280;22004;49.120;-0.200;2022-11-13T12:41:30;101493.19;;;16.20;68.02
35910;BME280;22004;49.120;-0.200;2022-11-13T12:44:24;101492.94;;;16.15;68.47
35910;BME280;22004;49.120;-0.200;2022-11-13T12:46:52;101490.94;;;16.30;69.81
35910;BME280;22004;49.120;-0.200;2022-11-13T12:52:15;101484.56;;;16.10;70.42
35910;BME280;22004;49.120;-0.200;2022-11-13T12:54:40;101487.22;;;15.96;70.96
35910;BME280;22004;49.120;-0.200;2022-11-13T12:57:14;101484.41;;;16.11;69.96
35910;BME280;22004;49.120;-0.200;2022-11-13T12:59:42;101480.19;;;16.09;69.52
35910;BME280;22004;49.120;-0.200;2022-11-13T13:06:19;101475.25;;;16.19;69.82
35910;BME280;22004;49.120;-0.200;2022-11-13T13:16:21;101458.31;;;16.10;70.33
35910;BME280;22004;49.120;-0.200;2022-11-13T13:18:47;101457.97;;;16.20;68.44
35910;BME280;22004;49.120;-0.200;2022-11-13T13:21:15;101456.31;;;16.25;69.05
35910;BME280;22004;49.120;-0.200;2022-11-13T13:23:44;101454.97;;;16.01;69.76
35910;BME280;22004;49.120;-0.200;2022-11-13T13:26:17;101447.56;;;16.23;68.25
35910;BME280;22004;49.120;-0.200;2022-11-13T13:28:54;101446.47;;;16.11;68.64
35910;BME280;22004;49.120;-0.200;2022-11-13T13:31:33;101443.81;;;15.90;69.33
35910;BME280;22004;49.120;-0.200;2022-11-13T13:37:13;101439.91;;;15.92;70.33
35910;BME280;22004;49.120;-0.200;2022-11-13T13:48:09;101427.63;;;15.96;70.52
35910;BME280;22004;49.120;-0.200;2022-11-13T13:50:40;101425.31;;;15.93;70.32
35910;BME280;22004;49.120;-0.200;2022-11-13T13:53:08;101417.75;;;15.82;70.51
35910;BME280;22004;49.120;-0.200;2022-11-13T13:55:38;101417.28;;;15.72;71.43